createdAt,value
2022-12-28T00:00:41.702Z,89063.00
2022-12-28T00:01:41.686Z,89061.00
2022-12-28T00:02:41.624Z,89061.00
2022-12-28T00:03:41.583Z,89059.00
2022-12-28T00:04:41.542Z,89059.00
2022-12-28T00:05:41.518Z,89059.00
2022-12-28T00:06:41.505Z,89061.00
2022-12-28T00:07:41.473Z,89057.00
2022-12-28T00:08:41.441Z,89059.00
2022-12-28T00:09:41.417Z,89055.00
2022-12-28T00:11:08.211Z,89055.00
2022-12-28T00:11:42.368Z,89053.00
2022-12-28T00:12:41.315Z,89051.00
2022-12-28T00:13:41.304Z,89049.00
2022-12-28T00:14:41.257Z,89047.00
2022-12-28T00:15:41.226Z,89047.00
2022-12-28T00:16:41.266Z,89047.00
2022-12-28T00:17:41.181Z,89051.00
2022-12-28T00:18:41.147Z,89051.00
2022-12-28T00:19:41.124Z,89045.00
2022-12-28T00:20:41.096Z,89043.00
2022-12-28T00:21:41.082Z,89045.00
2022-12-28T00:22:41.045Z,89045.00
2022-12-28T00:23:41.020Z,89047.00
2022-12-28T00:24:40.996Z,89047.00
2022-12-28T00:25:40.983Z,89047.00
2022-12-28T00:26:40.957Z,89051.00
2022-12-28T00:27:40.932Z,89051.00
2022-12-28T00:28:40.916Z,89053.00
2022-12-28T00:29:40.899Z,89051.00
2022-12-28T00:30:40.870Z,89051.00
2022-12-28T00:31:40.861Z,89053.00
2022-12-28T00:32:40.823Z,89055.00
2022-12-28T00:33:40.799Z,89053.00
2022-12-28T00:34:40.773Z,89051.00
2022-12-28T00:35:40.765Z,89051.00
2022-12-28T00:37:10.586Z,89051.00
2022-12-28T00:37:41.717Z,89051.00
2022-12-28T00:38:40.693Z,89057.00
2022-12-28T00:39:40.693Z,89055.00
2022-12-28T00:40:40.664Z,89059.00
2022-12-28T00:41:40.635Z,89059.00
2022-12-28T00:42:40.619Z,89061.00
2022-12-28T00:43:40.594Z,89061.00
2022-12-28T00:44:40.579Z,89061.00
2022-12-28T00:45:40.614Z,89061.00
2022-12-28T00:46:40.528Z,89057.00
2022-12-28T00:47:40.503Z,89057.00
2022-12-28T00:48:40.480Z,89057.00
2022-12-28T00:49:40.444Z,89057.00
2022-12-28T00:50:40.426Z,89055.00
2022-12-28T00:51:40.398Z,89053.00
2022-12-28T00:52:40.369Z,89055.00
2022-12-28T00:53:40.348Z,89053.00
2022-12-28T00:54:40.394Z,89053.00
2022-12-28T00:55:40.310Z,89053.00
2022-12-28T00:56:40.267Z,89051.00
2022-12-28T00:57:40.248Z,89049.00
2022-12-28T00:58:40.222Z,89045.00
2022-12-28T00:59:40.201Z,89045.00
2022-12-28T01:00:40.192Z,89043.00
2022-12-28T01:01:40.313Z,89049.00
2022-12-28T01:02:40.131Z,89045.00
2022-12-28T01:03:40.104Z,89043.00
2022-12-28T03:13:37.023Z,88936.00
2022-12-28T03:14:36.990Z,88934.00
2022-12-28T03:15:37.012Z,88938.00
2022-12-28T03:16:36.944Z,88934.00
2022-12-28T03:17:36.923Z,88936.00
2022-12-28T03:18:36.913Z,88936.00
2022-12-28T03:19:36.874Z,88934.00
2022-12-28T03:20:36.859Z,88932.00
2022-12-28T03:21:36.819Z,88938.00
2022-12-28T03:22:36.795Z,88938.00
2022-12-28T03:23:36.764Z,88938.00
2022-12-28T03:24:36.745Z,88936.00
2022-12-28T03:25:36.712Z,88934.00
2022-12-28T03:26:36.693Z,88932.00
2022-12-28T03:27:36.669Z,88926.00
2022-12-28T03:28:36.650Z,88924.00
2022-12-28T03:29:36.621Z,88926.00
2022-12-28T03:30:36.591Z,88930.00
2022-12-28T03:31:36.568Z,88928.00
2022-12-28T03:32:36.553Z,88926.00
2022-12-28T03:33:36.530Z,88926.00
2022-12-28T03:34:36.510Z,88926.00
2022-12-28T03:35:36.477Z,88924.00
2022-12-28T03:36:36.445Z,88926.00
2022-12-28T03:37:36.422Z,88928.00
2022-12-28T03:38:36.391Z,88922.00
2022-12-28T03:39:36.360Z,88928.00
2022-12-28T03:40:36.340Z,88928.00
2022-12-28T03:41:36.305Z,88932.00
2022-12-28T03:42:36.279Z,88930.00
2022-12-28T03:43:36.246Z,88928.00
2022-12-28T03:44:36.241Z,88924.00
2022-12-28T03:45:46.340Z,88920.00
2022-12-28T03:46:37.190Z,88920.00
2022-12-28T03:47:36.139Z,88922.00
2022-12-28T03:48:36.101Z,88920.00
2022-12-28T03:49:36.080Z,88914.00
2022-12-28T03:50:36.055Z,88912.00
2022-12-28T03:51:36.024Z,88904.00
2022-12-28T03:52:36.006Z,88906.00
2022-12-28T03:53:35.971Z,88906.00
2022-12-28T03:54:35.944Z,88908.00
2022-12-28T03:55:35.950Z,88910.00
2022-12-28T03:56:35.903Z,88904.00
2022-12-28T03:57:35.879Z,88912.00
2022-12-28T03:58:35.855Z,88910.00
2022-12-28T03:59:35.821Z,88912.00
2022-12-28T04:00:35.810Z,88914.00
2022-12-28T04:01:35.866Z,88914.00
2022-12-28T04:02:35.879Z,88912.00
2022-12-28T04:03:35.736Z,88918.00
2022-12-28T04:04:35.691Z,88914.00
2022-12-28T04:05:35.670Z,88912.00
2022-12-28T04:06:35.681Z,88916.00
2022-12-28T04:07:35.619Z,88912.00
2022-12-28T04:08:35.601Z,88912.00
2022-12-28T04:09:35.557Z,88904.00
2022-12-28T04:10:35.529Z,88901.00
2022-12-28T04:11:35.544Z,88897.00
2022-12-28T04:12:35.523Z,88899.00
2022-12-28T04:13:35.460Z,88902.00
2022-12-28T04:14:35.426Z,88901.00
2022-12-28T04:15:35.458Z,88899.00
2022-12-28T04:16:35.398Z,88897.00
2022-12-28T04:17:35.357Z,88895.00
2022-12-28T04:18:35.335Z,88893.00
2022-12-28T04:19:35.308Z,88897.00
2022-12-28T04:20:35.272Z,88893.00
2022-12-28T04:21:35.242Z,88897.00
2022-12-28T04:22:35.214Z,88893.00
2022-12-28T04:23:35.192Z,88893.00
2022-12-28T04:24:35.164Z,88893.00
2022-12-28T04:25:35.129Z,88889.00
2022-12-28T04:26:35.123Z,88893.00
2022-12-28T04:27:35.088Z,88887.00
2022-12-28T04:28:35.056Z,88883.00
2022-12-28T04:29:35.016Z,88881.00
2022-12-28T04:30:35.009Z,88879.00
2022-12-28T04:31:35.003Z,88873.00
2022-12-28T04:32:34.937Z,88865.00
2022-12-28T04:33:34.912Z,88865.00
2022-12-28T04:34:34.887Z,88863.00
2022-12-28T04:35:34.862Z,88861.00
2022-12-28T04:36:34.849Z,88857.00
2022-12-28T04:37:34.813Z,88861.00
2022-12-28T04:38:34.791Z,88863.00
2022-12-28T04:39:56.301Z,88863.00
2022-12-28T04:40:35.737Z,88871.00
2022-12-28T04:41:34.715Z,88865.00
2022-12-28T04:42:34.688Z,88863.00
2022-12-28T04:43:34.674Z,88871.00
2022-12-28T04:44:34.641Z,88867.00
2022-12-28T04:45:34.615Z,88869.00
2022-12-28T04:46:34.639Z,88865.00
2022-12-28T04:47:34.562Z,88865.00
2022-12-28T04:48:34.544Z,88865.00
2022-12-28T04:49:34.510Z,88867.00
2022-12-28T04:50:34.496Z,88863.00
2022-12-28T04:51:34.472Z,88867.00
2022-12-28T04:52:34.448Z,88867.00
2022-12-28T04:53:34.411Z,88867.00
2022-12-28T04:54:34.398Z,88863.00
2022-12-28T04:55:34.361Z,88861.00
2022-12-28T04:56:34.332Z,88863.00
2022-12-28T04:57:34.307Z,88859.00
2022-12-28T04:58:34.370Z,88857.00
2022-12-28T04:59:34.243Z,88855.00
2022-12-28T05:00:34.300Z,88855.00
2022-12-28T05:01:34.272Z,88842.00
2022-12-28T05:02:34.244Z,88840.00
2022-12-28T05:03:34.155Z,88846.00
2022-12-28T05:04:34.122Z,88847.00
2022-12-28T05:05:34.092Z,88844.00
2022-12-28T05:06:34.061Z,88844.00
2022-12-28T05:07:34.038Z,88840.00
2022-12-28T05:08:34.007Z,88842.00
2022-12-28T05:09:33.988Z,88836.00
2022-12-28T05:10:33.979Z,88842.00
2022-12-28T05:11:33.927Z,88840.00
2022-12-28T05:12:33.907Z,88844.00
2022-12-28T05:13:33.898Z,88842.00
2022-12-28T05:14:37.205Z,88842.00
2022-12-28T05:15:33.833Z,88838.00
2022-12-28T05:16:33.854Z,88842.00
2022-12-28T05:17:33.783Z,88836.00
2022-12-28T05:18:33.764Z,88840.00
2022-12-28T05:19:33.751Z,88853.00
2022-12-28T05:20:33.720Z,88855.00
2022-12-28T05:21:33.695Z,88867.00
2022-12-28T05:22:39.091Z,88865.00
2022-12-28T05:23:34.646Z,88869.00
2022-12-28T05:24:33.624Z,88867.00
2022-12-28T05:25:33.613Z,88871.00
2022-12-28T05:26:33.584Z,88883.00
2022-12-28T05:27:33.552Z,88881.00
2022-12-28T05:28:33.533Z,88881.00
2022-12-28T05:29:33.505Z,88879.00
2022-12-28T05:30:33.495Z,88879.00
2022-12-28T05:31:33.495Z,88875.00
2022-12-28T05:32:33.435Z,88879.00
2022-12-28T05:33:33.411Z,88875.00
2022-12-28T05:34:33.397Z,88879.00
2022-12-28T05:35:33.380Z,88885.00
2022-12-28T05:36:33.351Z,88877.00
2022-12-28T05:37:33.317Z,88879.00
2022-12-28T05:38:33.303Z,88873.00
2022-12-28T05:39:33.277Z,88879.00
2022-12-28T05:40:33.247Z,88875.00
2022-12-28T05:41:33.238Z,88879.00
2022-12-28T05:42:33.203Z,88881.00
2022-12-28T05:43:33.169Z,88873.00
2022-12-28T05:44:33.149Z,88871.00
2022-12-28T05:45:33.112Z,88873.00
2022-12-28T05:46:33.140Z,88871.00
2022-12-28T05:47:33.063Z,88871.00
2022-12-28T05:48:33.043Z,88871.00
2022-12-28T05:49:33.019Z,88867.00
2022-12-28T05:50:32.977Z,88871.00
2022-12-28T05:51:32.983Z,88871.00
2022-12-28T05:52:32.928Z,88879.00
2022-12-28T05:53:32.902Z,88879.00
2022-12-28T05:54:32.881Z,88875.00
2022-12-28T05:55:32.848Z,88881.00
2022-12-28T05:56:32.823Z,88873.00
2022-12-28T05:57:32.791Z,88881.00
2022-12-28T05:58:32.766Z,88877.00
2022-12-28T05:59:33.143Z,88877.00
2022-12-28T06:00:32.716Z,88877.00
2022-12-28T06:01:32.876Z,88883.00
2022-12-28T06:02:32.766Z,88879.00
2022-12-28T06:03:32.721Z,88879.00
2022-12-28T06:04:32.613Z,88879.00
2022-12-28T06:05:32.577Z,88877.00
2022-12-28T06:06:32.562Z,88877.00
2022-12-28T06:07:32.529Z,88871.00
2022-12-28T06:08:32.506Z,88875.00
2022-12-28T06:09:32.480Z,88871.00
2022-12-28T06:10:32.453Z,88867.00
2022-12-28T06:11:32.431Z,88873.00
2022-12-28T06:12:32.399Z,88867.00
2022-12-28T06:13:32.359Z,88863.00
2022-12-28T06:14:32.348Z,88865.00
2022-12-28T06:15:32.312Z,88867.00
2022-12-28T06:16:32.321Z,88865.00
2022-12-28T06:17:32.264Z,88869.00
2022-12-28T06:18:32.235Z,88861.00
2022-12-28T06:19:32.204Z,88863.00
2022-12-28T06:20:32.180Z,88865.00
2022-12-28T06:21:32.158Z,88859.00
2022-12-28T06:22:32.114Z,88863.00
2022-12-28T06:23:32.097Z,88861.00
2022-12-28T06:24:32.060Z,88859.00
2022-12-28T06:25:32.041Z,88861.00
2022-12-28T06:26:32.010Z,88863.00
2022-12-28T06:27:32.015Z,88861.00
2022-12-28T06:28:31.972Z,88861.00
2022-12-28T06:29:31.946Z,88859.00
2022-12-28T06:30:31.928Z,88865.00
2022-12-28T06:31:31.995Z,88865.00
2022-12-28T06:32:31.883Z,88867.00
2022-12-28T06:33:31.848Z,88875.00
2022-12-28T06:34:31.835Z,88871.00
2022-12-28T06:35:31.804Z,88871.00
2022-12-28T06:36:31.783Z,88869.00
2022-12-28T06:37:31.758Z,88871.00
2022-12-28T06:38:31.727Z,88875.00
2022-12-28T06:39:31.705Z,88873.00
2022-12-28T06:40:54.551Z,88871.00
2022-12-28T06:41:32.667Z,88869.00
2022-12-28T06:42:31.647Z,88873.00
2022-12-28T06:43:31.605Z,88875.00
2022-12-28T06:44:31.579Z,88875.00
2022-12-28T06:45:31.597Z,88869.00
2022-12-28T06:46:31.539Z,88867.00
2022-12-28T06:47:31.517Z,88863.00
2022-12-28T06:48:31.496Z,88865.00
2022-12-28T06:49:31.473Z,88871.00
2022-12-28T06:50:36.799Z,88867.00
2022-12-28T06:51:32.446Z,88859.00
2022-12-28T06:52:31.401Z,88867.00
2022-12-28T06:53:31.382Z,88861.00
2022-12-28T06:54:31.352Z,88861.00
2022-12-28T06:55:31.346Z,88861.00
2022-12-28T06:56:31.319Z,88859.00
2022-12-28T06:57:31.363Z,88861.00
2022-12-28T06:58:31.268Z,88859.00
2022-12-28T06:59:31.246Z,88867.00
2022-12-28T07:00:31.207Z,88871.00
2022-12-28T07:01:31.264Z,88867.00
2022-12-28T07:02:31.347Z,88863.00
2022-12-28T07:03:31.147Z,88863.00
2022-12-28T07:04:31.136Z,88861.00
2022-12-28T07:05:31.115Z,88875.00
2022-12-28T07:06:31.089Z,88871.00
2022-12-28T07:07:31.070Z,88869.00
2022-12-28T07:08:31.049Z,88873.00
2022-12-28T07:09:31.021Z,88875.00
2022-12-28T07:10:30.997Z,88879.00
2022-12-28T07:11:31.012Z,88877.00
2022-12-28T07:12:30.954Z,88883.00
2022-12-28T07:13:30.935Z,88877.00
2022-12-28T07:14:30.907Z,88871.00
2022-12-28T07:15:30.888Z,88867.00
2022-12-28T07:17:38.945Z,88873.00
2022-12-28T07:18:38.940Z,88873.00
2022-12-28T07:19:38.891Z,88865.00
2022-12-28T07:20:40.701Z,88861.00
2022-12-28T07:21:38.857Z,88873.00
2022-12-28T07:22:38.818Z,88867.00
2022-12-28T07:23:38.809Z,88863.00
2022-12-28T07:24:38.819Z,88867.00
2022-12-28T07:25:38.761Z,88867.00
2022-12-28T07:26:38.779Z,88869.00
2022-12-28T07:27:38.714Z,88873.00
2022-12-28T07:28:38.723Z,88873.00
2022-12-28T07:29:38.695Z,88873.00
2022-12-28T07:30:38.761Z,88873.00
2022-12-28T07:31:44.702Z,88875.00
2022-12-28T07:32:39.601Z,88873.00
2022-12-28T07:33:38.560Z,88871.00
2022-12-28T07:34:38.520Z,88875.00
2022-12-28T07:35:38.500Z,88873.00
2022-12-28T07:36:38.471Z,88873.00
2022-12-28T07:37:38.449Z,88869.00
2022-12-28T07:38:38.425Z,88877.00
2022-12-28T07:39:38.409Z,88873.00
2022-12-28T07:40:38.367Z,88875.00
2022-12-28T07:41:38.362Z,88867.00
2022-12-28T07:42:38.310Z,88869.00
2022-12-28T07:43:38.301Z,88867.00
2022-12-28T07:44:38.922Z,88871.00
2022-12-28T07:45:38.264Z,88865.00
2022-12-28T07:46:38.230Z,88867.00
2022-12-28T07:47:38.195Z,88865.00
2022-12-28T07:48:38.171Z,88865.00
2022-12-28T07:49:38.146Z,88873.00
2022-12-28T07:50:38.395Z,88873.00
2022-12-28T07:51:38.102Z,88865.00
2022-12-28T07:52:38.081Z,88869.00
2022-12-28T07:53:38.051Z,88867.00
2022-12-28T07:54:38.026Z,88871.00
2022-12-28T07:55:38.009Z,88871.00
2022-12-28T07:57:46.088Z,88861.00
2022-12-28T08:08:53.887Z,88875.00
2022-12-28T08:27:53.422Z,88875.00
2022-12-28T08:31:53.307Z,88867.00
2022-12-28T08:32:53.280Z,88871.00
2022-12-28T08:33:53.247Z,88877.00
2022-12-28T08:34:53.212Z,88877.00
2022-12-28T08:35:53.180Z,88879.00
2022-12-28T08:36:53.149Z,88873.00
2022-12-28T08:37:53.150Z,88869.00
2022-12-28T08:38:53.088Z,88867.00
2022-12-28T08:39:53.060Z,88881.00
2022-12-28T08:40:57.393Z,88881.00
2022-12-28T08:41:53.003Z,88879.00
2022-12-28T08:42:52.967Z,88883.00
2022-12-28T08:43:52.942Z,88887.00
2022-12-28T08:44:52.905Z,88879.00
2022-12-28T08:45:52.991Z,88881.00
2022-12-28T08:46:52.862Z,88881.00
2022-12-28T08:47:52.826Z,88875.00
2022-12-28T08:48:52.797Z,88873.00
2022-12-28T08:49:52.758Z,88879.00
2022-12-28T08:50:52.727Z,88871.00
2022-12-28T08:51:52.710Z,88879.00
2022-12-28T08:52:52.682Z,88885.00
2022-12-28T08:53:52.665Z,88879.00
2022-12-28T08:54:52.634Z,88879.00
2022-12-28T08:55:52.601Z,88883.00
2022-12-28T08:56:52.567Z,88887.00
2022-12-28T08:57:52.535Z,88877.00
2022-12-28T08:58:52.501Z,88877.00
2022-12-28T08:59:52.471Z,88873.00
2022-12-28T09:00:52.437Z,88863.00
2022-12-28T09:01:52.562Z,88869.00
2022-12-28T09:02:52.505Z,88873.00
2022-12-28T09:03:52.343Z,88867.00
2022-12-28T09:04:52.307Z,88869.00
2022-12-28T09:05:54.563Z,88871.00
2022-12-28T09:06:52.321Z,88871.00
2022-12-28T09:07:56.233Z,88877.00
2022-12-28T09:09:07.470Z,88869.00
2022-12-28T09:09:53.250Z,88873.00
2022-12-28T09:10:52.189Z,88871.00
2022-12-28T09:11:52.144Z,88873.00
2022-12-28T09:12:52.110Z,88863.00
2022-12-28T09:13:52.075Z,88875.00
2022-12-28T09:14:52.030Z,88879.00
2022-12-28T09:15:52.037Z,88869.00
2022-12-28T09:16:51.976Z,88873.00
2022-12-28T09:17:51.935Z,88873.00
2022-12-28T09:18:51.893Z,88867.00
2022-12-28T09:19:51.870Z,88873.00
2022-12-28T09:20:51.832Z,88877.00
2022-12-28T09:21:51.818Z,88883.00
2022-12-28T09:22:51.770Z,88881.00
2022-12-28T09:23:51.748Z,88879.00
2022-12-28T09:24:51.716Z,88873.00
2022-12-28T09:25:51.670Z,88883.00
2022-12-28T09:26:51.635Z,88879.00
2022-12-28T09:27:57.529Z,88879.00
2022-12-28T09:28:52.577Z,88873.00
2022-12-28T09:29:51.542Z,88871.00
2022-12-28T09:30:51.545Z,88875.00
2022-12-28T09:31:51.491Z,88869.00
2022-12-28T09:32:51.454Z,88873.00
2022-12-28T09:34:32.163Z,88873.00
2022-12-28T09:34:52.389Z,88875.00
2022-12-28T09:35:51.362Z,88875.00
2022-12-28T09:36:51.359Z,88871.00
2022-12-28T09:37:51.294Z,88871.00
2022-12-28T09:38:51.311Z,88871.00
2022-12-28T09:39:51.234Z,88863.00
2022-12-28T09:40:51.196Z,88873.00
2022-12-28T09:41:51.169Z,88877.00
2022-12-28T09:42:51.128Z,88871.00
2022-12-28T09:43:51.105Z,88869.00
2022-12-28T09:44:51.069Z,88873.00
2022-12-28T09:59:50.569Z,88853.00
2022-12-28T10:02:50.549Z,88846.00
2022-12-28T10:03:50.452Z,88847.00
2022-12-28T10:04:50.416Z,88847.00
2022-12-28T10:05:50.392Z,88838.00
2022-12-28T10:06:50.359Z,88846.00
2022-12-28T10:07:50.340Z,88842.00
2022-12-28T10:08:50.282Z,88840.00
2022-12-28T10:09:50.256Z,88836.00
2022-12-28T10:10:50.237Z,88840.00
2022-12-28T10:11:50.206Z,88836.00
2022-12-28T10:12:50.160Z,88836.00
2022-12-28T10:13:54.978Z,88838.00
2022-12-28T10:14:51.102Z,88836.00
2022-12-28T10:15:50.120Z,88830.00
2022-12-28T10:16:50.052Z,88836.00
2022-12-28T10:17:50.016Z,88830.00
2022-12-28T10:19:49.963Z,88816.00
2022-12-28T10:20:49.930Z,88826.00
2022-12-28T10:21:49.885Z,88830.00
2022-12-28T10:22:50.389Z,88832.00
2022-12-28T10:24:49.800Z,88828.00
2022-12-28T10:25:49.755Z,88834.00
2022-12-28T10:26:49.736Z,88834.00
2022-12-28T10:27:49.700Z,88826.00
2022-12-28T10:28:49.664Z,88836.00
2022-12-28T10:29:49.639Z,88830.00
2022-12-28T10:30:49.632Z,88826.00
2022-12-28T10:31:49.559Z,88822.00
2022-12-28T10:32:49.526Z,88824.00
2022-12-28T10:33:49.489Z,88818.00
2022-12-28T10:34:49.456Z,88812.00
2022-12-28T10:35:49.434Z,88814.00
2022-12-28T10:36:49.405Z,88812.00
2022-12-28T10:37:49.358Z,88806.00
2022-12-28T10:38:49.330Z,88818.00
2022-12-28T10:39:49.300Z,88818.00
2022-12-28T10:40:49.249Z,88810.00
2022-12-28T10:41:49.218Z,88804.00
2022-12-28T10:42:49.203Z,88808.00
2022-12-28T10:44:08.672Z,88806.00
2022-12-28T10:44:50.129Z,88797.00
2022-12-28T10:45:49.085Z,88806.00
2022-12-28T10:46:49.065Z,88812.00
2022-12-28T10:47:49.017Z,88806.00
2022-12-28T10:48:48.993Z,88804.00
2022-12-28T10:50:02.671Z,88800.00
2022-12-28T10:50:49.934Z,88800.00
2022-12-28T10:51:48.889Z,88791.00
2022-12-28T10:52:48.863Z,88799.00
2022-12-28T10:53:48.834Z,88783.00
2022-12-28T10:55:07.453Z,88789.00
2022-12-28T10:55:49.777Z,88783.00
2022-12-28T10:56:48.738Z,88785.00
2022-12-28T10:58:26.955Z,88781.00
2022-12-28T10:58:49.681Z,88781.00
2022-12-28T10:59:48.638Z,88783.00
2022-12-28T11:00:52.219Z,88783.00
2022-12-28T11:01:48.713Z,88771.00
2022-12-28T11:02:48.736Z,88781.00
2022-12-28T11:03:48.488Z,88771.00
2022-12-28T11:04:48.467Z,88769.00
2022-12-28T11:05:57.255Z,88773.00
2022-12-28T11:06:49.386Z,88771.00
2022-12-28T11:07:48.341Z,88771.00
2022-12-28T11:08:48.308Z,88763.00
2022-12-28T11:09:48.275Z,88759.00
2022-12-28T11:10:48.236Z,88765.00
2022-12-28T11:11:48.195Z,88769.00
2022-12-28T11:12:48.166Z,88773.00
2022-12-28T11:13:48.119Z,88773.00
2022-12-28T11:14:48.104Z,88771.00
2022-12-28T11:15:48.044Z,88767.00
2022-12-28T11:16:48.147Z,88769.00
2022-12-28T11:17:47.985Z,88777.00
2022-12-28T11:18:47.937Z,88769.00
2022-12-28T11:19:47.898Z,88773.00
2022-12-28T11:20:47.870Z,88771.00
2022-12-28T11:21:47.824Z,88777.00
2022-12-28T11:22:47.791Z,88775.00
2022-12-28T11:23:47.742Z,88773.00
2022-12-28T11:24:47.736Z,88777.00
2022-12-28T11:25:47.682Z,88785.00
2022-12-28T11:26:47.640Z,88777.00
2022-12-28T11:27:47.603Z,88771.00
2022-12-28T11:28:47.574Z,88775.00
2022-12-28T11:29:47.526Z,88775.00
2022-12-28T11:30:47.505Z,88765.00
2022-12-28T11:31:47.489Z,88763.00
2022-12-28T11:32:47.424Z,88763.00
2022-12-28T11:33:47.389Z,88761.00
2022-12-28T11:34:47.349Z,88767.00
2022-12-28T11:35:47.311Z,88757.00
2022-12-28T11:36:47.274Z,88757.00
2022-12-28T11:37:47.230Z,88759.00
2022-12-28T11:38:47.201Z,88763.00
2022-12-28T11:39:47.220Z,88767.00
2022-12-28T11:40:47.126Z,88769.00
2022-12-28T11:42:03.127Z,88757.00
2022-12-28T11:42:48.045Z,88761.00
2022-12-28T11:43:47.004Z,88765.00
2022-12-28T11:44:46.973Z,88769.00
2022-12-28T11:45:46.972Z,88763.00
2022-12-28T11:46:46.899Z,88757.00
2022-12-28T11:47:46.864Z,88753.00
2022-12-28T11:48:46.839Z,88749.00
2022-12-28T11:49:46.799Z,88749.00
2022-12-28T11:50:46.793Z,88757.00
2022-12-28T11:51:46.737Z,88759.00
2022-12-28T11:52:46.707Z,88753.00
2022-12-28T11:53:46.675Z,88749.00
2022-12-28T11:54:46.634Z,88744.00
2022-12-28T11:55:46.602Z,88744.00
2022-12-28T11:56:46.564Z,88747.00
2022-12-28T11:57:46.530Z,88744.00
2022-12-28T11:58:46.497Z,88744.00
2022-12-28T11:59:46.458Z,88736.00
2022-12-28T12:00:46.431Z,88738.00
2022-12-28T12:01:46.392Z,88744.00
2022-12-28T12:02:46.353Z,88738.00
2022-12-28T12:03:46.334Z,88740.00
2022-12-28T12:04:46.330Z,88734.00
2022-12-28T12:05:46.243Z,88734.00
2022-12-28T12:06:46.213Z,88723.00
2022-12-28T12:07:46.178Z,88713.00
2022-12-28T12:08:46.148Z,88711.00
2022-12-28T12:09:46.111Z,88717.00
2022-12-28T12:10:46.096Z,88717.00
2022-12-28T12:11:46.043Z,88717.00
2022-12-28T12:12:46.020Z,88715.00
2022-12-28T12:13:45.986Z,88703.00
2022-12-28T12:14:45.941Z,88713.00
2022-12-28T12:15:45.913Z,88713.00
2022-12-28T12:16:45.967Z,88711.00
2022-12-28T12:17:45.844Z,88697.00
2022-12-28T12:18:45.807Z,88707.00
2022-12-28T12:19:45.776Z,88695.00
2022-12-28T12:20:45.748Z,88699.00
2022-12-28T12:21:45.722Z,88699.00
2022-12-28T12:22:45.679Z,88699.00
2022-12-28T12:23:45.643Z,88705.00
2022-12-28T12:24:45.622Z,88709.00
2022-12-28T12:25:45.589Z,88701.00
2022-12-28T12:26:45.615Z,88703.00
2022-12-28T12:27:45.503Z,88707.00
2022-12-28T12:28:45.484Z,88697.00
2022-12-28T12:29:45.434Z,88705.00
2022-12-28T12:30:45.528Z,88701.00
2022-12-28T12:31:45.383Z,88707.00
2022-12-28T12:32:45.356Z,88693.00
2022-12-28T12:33:45.325Z,88689.00
2022-12-28T12:34:45.287Z,88685.00
2022-12-28T12:35:45.239Z,88687.00
2022-12-28T12:36:45.226Z,88685.00
2022-12-28T12:37:45.170Z,88695.00
2022-12-28T12:38:45.149Z,88691.00
2022-12-28T12:39:45.107Z,88687.00
2022-12-28T12:40:45.068Z,88683.00
2022-12-28T12:41:45.043Z,88683.00
2022-12-28T12:42:44.996Z,88689.00
2022-12-28T12:43:44.963Z,88689.00
2022-12-28T12:44:44.930Z,88681.00
2022-12-28T12:45:44.933Z,88683.00
2022-12-28T12:46:44.853Z,88685.00
2022-12-28T12:47:44.825Z,88685.00
2022-12-28T12:48:44.763Z,88677.00
2022-12-28T12:49:44.732Z,88679.00
2022-12-28T12:50:44.696Z,88681.00
2022-12-28T12:51:44.662Z,88679.00
2022-12-28T12:52:44.611Z,88677.00
2022-12-28T12:53:48.375Z,88677.00
2022-12-28T12:54:44.535Z,88677.00
2022-12-28T12:55:44.500Z,88676.00
2022-12-28T12:56:44.478Z,88676.00
2022-12-28T12:57:44.417Z,88666.00
2022-12-28T12:58:44.391Z,88674.00
2022-12-28T12:59:44.343Z,88672.00
2022-12-28T13:00:48.512Z,88670.00
2022-12-28T13:01:44.346Z,88664.00
2022-12-28T13:02:44.326Z,88668.00
2022-12-28T13:03:44.171Z,88664.00
2022-12-28T13:04:44.135Z,88668.00
2022-12-28T13:05:44.109Z,88666.00
2022-12-28T13:06:44.079Z,88658.00
2022-12-28T13:07:44.021Z,88662.00
2022-12-28T13:08:43.983Z,88660.00
2022-12-28T13:09:43.944Z,88662.00
2022-12-28T13:10:43.910Z,88658.00
2022-12-28T13:11:43.886Z,88658.00
2022-12-28T13:12:43.826Z,88654.00
2022-12-28T13:13:43.801Z,88650.00
2022-12-28T13:14:43.763Z,88652.00
2022-12-28T13:15:43.764Z,88648.00
2022-12-28T13:16:43.690Z,88650.00
2022-12-28T13:17:43.649Z,88654.00
2022-12-28T13:18:45.333Z,88650.00
2022-12-28T13:19:43.563Z,88644.00
2022-12-28T13:20:43.522Z,88638.00
2022-12-28T13:21:43.486Z,88632.00
2022-12-28T13:22:43.438Z,88628.00
2022-12-28T13:23:43.402Z,88626.00
2022-12-28T13:24:43.360Z,88632.00
2022-12-28T13:25:43.315Z,88622.00
2022-12-28T13:26:43.290Z,88624.00
2022-12-28T13:27:43.250Z,88628.00
2022-12-28T13:28:43.208Z,88632.00
2022-12-28T13:29:43.167Z,88626.00
2022-12-28T13:30:43.164Z,88630.00
2022-12-28T13:31:43.090Z,88632.00
2022-12-28T13:32:43.058Z,88626.00
2022-12-28T13:33:43.026Z,88628.00
2022-12-28T13:34:42.980Z,88622.00
2022-12-28T13:35:42.943Z,88617.00
2022-12-28T13:36:42.906Z,88624.00
2022-12-28T13:37:42.873Z,88619.00
2022-12-28T13:38:42.825Z,88622.00
2022-12-28T13:39:42.851Z,88622.00
2022-12-28T13:40:42.758Z,88624.00
2022-12-28T13:41:42.707Z,88622.00
2022-12-28T13:42:42.675Z,88628.00
2022-12-28T13:43:42.633Z,88626.00
2022-12-28T13:44:42.596Z,88624.00
2022-12-28T13:45:47.626Z,88621.00
2022-12-28T13:46:43.600Z,88621.00
2022-12-28T13:47:42.482Z,88621.00
2022-12-28T13:48:42.460Z,88621.00
2022-12-28T13:49:42.406Z,88621.00
2022-12-28T13:50:42.381Z,88617.00
2022-12-28T13:51:42.339Z,88621.00
2022-12-28T13:52:42.310Z,88621.00
2022-12-28T13:53:42.279Z,88619.00
2022-12-28T13:54:42.237Z,88619.00
2022-12-28T13:55:42.206Z,88617.00
2022-12-28T13:56:42.179Z,88613.00
2022-12-28T13:57:48.204Z,88617.00
2022-12-28T13:58:43.134Z,88621.00
2022-12-28T13:59:42.089Z,88615.00
2022-12-28T14:00:42.065Z,88615.00
2022-12-28T14:01:42.140Z,88619.00
2022-12-28T14:02:42.004Z,88617.00
2022-12-28T14:03:46.190Z,88613.00
2022-12-28T14:04:52.323Z,88617.00
2022-12-28T14:05:42.912Z,88624.00
2022-12-28T14:06:41.862Z,88621.00
2022-12-28T14:07:41.830Z,88630.00
2022-12-28T14:08:41.818Z,88621.00
2022-12-28T14:09:41.759Z,88619.00
2022-12-28T14:10:41.757Z,88628.00
2022-12-28T14:11:41.699Z,88621.00
2022-12-28T14:12:41.687Z,88613.00
2022-12-28T14:13:41.636Z,88621.00
2022-12-28T14:14:41.602Z,88626.00
2022-12-28T14:15:41.915Z,88624.00
2022-12-28T14:16:41.532Z,88624.00
2022-12-28T14:17:41.501Z,88621.00
2022-12-28T14:18:41.470Z,88624.00
2022-12-28T14:19:41.437Z,88622.00
2022-12-28T14:20:41.401Z,88628.00
2022-12-28T14:21:41.369Z,88621.00
2022-12-28T14:22:41.349Z,88630.00
2022-12-28T14:23:41.304Z,88624.00
2022-12-28T14:24:41.302Z,88622.00
2022-12-28T14:25:41.227Z,88628.00
2022-12-28T14:26:41.192Z,88622.00
2022-12-28T14:27:41.166Z,88624.00
2022-12-28T14:28:41.135Z,88628.00
2022-12-28T14:29:41.100Z,88624.00
2022-12-28T14:30:41.090Z,88621.00
2022-12-28T14:46:40.485Z,88621.00
2022-12-28T15:25:39.101Z,88617.00
2022-12-28T15:30:38.943Z,88609.00
2022-12-28T15:49:38.325Z,88603.00
2022-12-28T16:01:38.262Z,88601.00
2022-12-28T16:07:37.735Z,88597.00
2022-12-28T16:18:37.350Z,88595.00
2022-12-28T16:44:36.520Z,88605.00
2022-12-28T16:48:36.392Z,88607.00
2022-12-28T17:02:36.091Z,88607.00
2022-12-28T17:03:35.938Z,88607.00
2022-12-28T17:25:35.194Z,88599.00
2022-12-28T17:26:35.167Z,88601.00
2022-12-28T17:27:35.144Z,88597.00